This is the latest recevied weather packets stored in our database for station/object N2XP-2. If no packets are shown the sender has not sent any weather packets the latest 10 day(s).
| Time | Temp. | Humidity | Pressure | Rain* | Wind** | Luminosity | Snow |
|---|---|---|---|---|---|---|---|
| 1778164719 | 15° C | 78% | 1011.1 hPa | 0 mm | 0 m/s | - | - |
| 1778164420 | 14.44° C | 78% | 1011.2 hPa | 0 mm | 0 m/s | - | - |
| 1778164117 | 14.44° C | 79% | 1011.1 hPa | 0 mm | 0 m/s | - | - |
| 1778163818 | 14.44° C | 79% | 1011.1 hPa | 0 mm | 0.89 m/s, 321° | - | - |
| 1778163519 | 14.44° C | 80% | 1011 hPa | 0 mm | 0 m/s | - | - |
| 1778163216 | 14.44° C | 81% | 1011 hPa | 0 mm | 0.89 m/s, 325° | - | - |
| 1778163056 | 13.89° C | 87% | 1011.1 hPa | 0 mm | 0.89 m/s, 270° | - | - |
| 1778162917 | 14.44° C | 82% | 1011.1 hPa | 0 mm | 0.89 m/s, 322° | - | - |
| 1778162618 | 14.44° C | 83% | 1011 hPa | 0 mm | 0.89 m/s, 312° | - | - |
| 1778162412 | 14.44° C | 84% | 1011.1 hPa | 0 mm | 0 m/s | - | - |
| 1778162315 | 14.44° C | 84% | 1011.1 hPa | 0 mm | 0 m/s | - | - |
| 1778162016 | 14.44° C | 85% | 1011.3 hPa | 0 mm | 0.45 m/s, 339° | - | - |
| 1778161717 | 14.44° C | 86% | 1011.2 hPa | 0 mm | 0 m/s | - | - |
| 1778161414 | 13.89° C | 87% | 1011.1 hPa | 0 mm | 0.89 m/s, 270° | - | - |
| 1778161133 | 13.33° C | 90% | 1011.2 hPa | 0 mm | 0.45 m/s, 311° | - | - |
| 1778161115 | 13.89° C | 88% | 1011 hPa | 0 mm | 0 m/s | - | - |
| 1778160513 | 13.33° C | 89% | 1010.9 hPa | 0 mm | 0 m/s | - | - |
| 1778160287 | 13.33° C | 89% | 1011 hPa | 0 mm | 0.89 m/s, 326° | - | - |
| 1778160214 | 13.33° C | 89% | 1011 hPa | 0 mm | 0.89 m/s, 326° | - | - |
| 1778159915 | 13.33° C | 89% | 1011.1 hPa | 0 mm | 1.34 m/s, 335° | - | - |
| 1778159693 | 13.33° C | 90% | 1011.2 hPa | 0 mm | 0 m/s | - | - |
| 1778159663 | 13.33° C | 90% | 1011.2 hPa | 0 mm | 0.45 m/s, 311° | - | - |
| 1778159612 | 13.33° C | 90% | 1011.2 hPa | 0 mm | 0 m/s | - | - |
| 1778159353 | 13.33° C | 90% | 1011.2 hPa | 0 mm | 0.45 m/s, 311° | - | - |
| 1778159313 | 13.33° C | 90% | 1011.2 hPa | 0 mm | 0.45 m/s, 311° | - | - |
* Rain latest hour (hover to see other rain measurements)
** Current wind speed in m/s (hover to see current wind gust speed)